CFG2080 EDDF-KLAX
Flight info
| Callsign | CFG2080 |
|---|---|
| Flight time | N/A |
| Altitude | 34000 |
| Route | OBOKA5G OBOKA Z28 DIBIR DCT BUDIP DCT RAVLO Y70 OTBED DCT ABLUC/N0468F360 DCT OZRAT DCT WETFI DCT REVNU DCT RESNO/M081F370 DCT 56N020W 57N030W 57N040W 56N050W DCT JANJO/N0467F380 DCT DENSO DCT AGLOL DCT MERNU DCT XEXUL DCT BLUOX DCT RAP/N0477F400 J158 DDY J107 NORRA J100 LAS Q70 HAILO DCT KOPLE BOGET2 |
| Aircraft | A339/H-SDE1E2E3GHIJ1J4J7LM1OP2RVWXYZ/LB1D1 |
Departure
| Time | N/A |
|---|---|
| Airport | Frankfurt Main Airport (EDDF) |
Arrival
| Time | 2026-04-25 05:54 |
|---|---|
| Airport | Los Angeles International Airport (KLAX) |
| Time | Latitude | Longitude | Altitude | Speed | Heading |
|---|---|---|---|---|---|
| 2026-04-25 03:01 | 45.76855 | -99.31754 | 37993 ft | 431 kts | 237° |
| 2026-04-25 03:02 | 45.75219 | -99.35353 | 37994 ft | 432 kts | 237° |
| 2026-04-25 03:02 | 45.71931 | -99.42556 | 37997 ft | 432 kts | 237° |
| 2026-04-25 03:03 | 45.68642 | -99.49758 | 37993 ft | 433 kts | 237° |
| 2026-04-25 03:03 | 45.65348 | -99.56959 | 37986 ft | 433 kts | 237° |
| 2026-04-25 03:04 | 45.62045 | -99.64160 | 37987 ft | 433 kts | 237° |
| 2026-04-25 03:04 | 45.58730 | -99.71354 | 37989 ft | 434 kts | 237° |
| 2026-04-25 03:05 | 45.53755 | -99.82125 | 37990 ft | 434 kts | 237° |
| 2026-04-25 03:05 | 45.50451 | -99.89268 | 37992 ft | 434 kts | 237° |
| 2026-04-25 03:06 | 45.47118 | -99.96441 | 37994 ft | 434 kts | 237° |
| 2026-04-25 03:06 | 45.43773 | -100.03617 | 37996 ft | 435 kts | 237° |
| 2026-04-25 03:07 | 45.40423 | -100.10810 | 37985 ft | 437 kts | 238° |
| 2026-04-25 03:07 | 45.37052 | -100.18013 | 37991 ft | 438 kts | 237° |
| 2026-04-25 03:08 | 45.33670 | -100.25224 | 37996 ft | 439 kts | 238° |
| 2026-04-25 03:08 | 45.30271 | -100.32436 | 38002 ft | 440 kts | 238° |
| 2026-04-25 03:09 | 45.26872 | -100.39639 | 38006 ft | 439 kts | 237° |
| 2026-04-25 03:09 | 45.23470 | -100.46844 | 38008 ft | 439 kts | 238° |
| 2026-04-25 03:10 | 45.20069 | -100.54026 | 38011 ft | 439 kts | 238° |
| 2026-04-25 03:10 | 45.16687 | -100.61154 | 38012 ft | 439 kts | 237° |
| 2026-04-25 03:11 | 45.13272 | -100.68318 | 38020 ft | 438 kts | 237° |
| 2026-04-25 03:11 | 45.09886 | -100.75405 | 38022 ft | 438 kts | 238° |
| 2026-04-25 03:12 | 45.06441 | -100.82592 | 38020 ft | 438 kts | 238° |
| 2026-04-25 03:12 | 45.03025 | -100.89716 | 38027 ft | 438 kts | 238° |
| 2026-04-25 03:13 | 44.99608 | -100.96825 | 38028 ft | 437 kts | 238° |
| 2026-04-25 03:13 | 44.96186 | -101.03924 | 38026 ft | 437 kts | 238° |
| 2026-04-25 03:14 | 44.92754 | -101.11007 | 38031 ft | 436 kts | 238° |
| 2026-04-25 03:14 | 44.89337 | -101.18071 | 38028 ft | 435 kts | 238° |
| 2026-04-25 03:15 | 44.85922 | -101.25125 | 38031 ft | 435 kts | 238° |
| 2026-04-25 03:15 | 44.82505 | -101.32135 | 38019 ft | 434 kts | 238° |
| 2026-04-25 03:16 | 44.79087 | -101.39135 | 38024 ft | 433 kts | 238° |
| 2026-04-25 03:16 | 44.75668 | -101.46120 | 38024 ft | 433 kts | 238° |
| 2026-04-25 03:17 | 44.72277 | -101.53038 | 38023 ft | 432 kts | 238° |
| 2026-04-25 03:17 | 44.68865 | -101.59977 | 38026 ft | 431 kts | 238° |
| 2026-04-25 03:18 | 44.65451 | -101.66899 | 38027 ft | 430 kts | 238° |
| 2026-04-25 03:18 | 44.62048 | -101.73794 | 38034 ft | 429 kts | 238° |
| 2026-04-25 03:19 | 44.58647 | -101.80656 | 38028 ft | 428 kts | 238° |
| 2026-04-25 03:19 | 44.55254 | -101.87491 | 38027 ft | 426 kts | 238° |
| 2026-04-25 03:20 | 44.51863 | -101.94306 | 38022 ft | 426 kts | 238° |
| 2026-04-25 03:20 | 44.48477 | -102.01093 | 38021 ft | 425 kts | 238° |
| 2026-04-25 03:21 | 44.45098 | -102.07857 | 38025 ft | 424 kts | 238° |
| 2026-04-25 03:21 | 44.41716 | -102.14608 | 38029 ft | 423 kts | 238° |
| 2026-04-25 03:22 | 44.38358 | -102.21293 | 38028 ft | 422 kts | 238° |
| 2026-04-25 03:22 | 44.34954 | -102.28051 | 38024 ft | 422 kts | 238° |
| 2026-04-25 03:23 | 44.31594 | -102.34705 | 38023 ft | 422 kts | 238° |
| 2026-04-25 03:23 | 44.28207 | -102.41406 | 38017 ft | 422 kts | 238° |
| 2026-04-25 03:24 | 44.24819 | -102.48095 | 38020 ft | 422 kts | 237° |
| 2026-04-25 03:24 | 44.21421 | -102.54779 | 38020 ft | 422 kts | 237° |
| 2026-04-25 03:25 | 44.18023 | -102.61458 | 38020 ft | 422 kts | 237° |
| 2026-04-25 03:25 | 44.14615 | -102.68126 | 38020 ft | 423 kts | 237° |
| 2026-04-25 03:26 | 44.11200 | -102.74808 | 38010 ft | 424 kts | 237° |
| 2026-04-25 03:26 | 44.07781 | -102.81489 | 38005 ft | 424 kts | 237° |
| 2026-04-25 03:27 | 44.04352 | -102.88170 | 38064 ft | 425 kts | 237° |
| 2026-04-25 03:27 | 44.02631 | -102.91521 | 38191 ft | 426 kts | 237° |
| 2026-04-25 03:27 | 44.00912 | -102.94862 | 38318 ft | 426 kts | 237° |
| 2026-04-25 03:28 | 43.97535 | -103.01625 | 38585 ft | 423 kts | 244° |
| 2026-04-25 03:28 | 43.96353 | -103.05327 | 38815 ft | 418 kts | 251° |
| 2026-04-25 03:28 | 43.95413 | -103.09100 | 38863 ft | 420 kts | 252° |
| 2026-04-25 03:29 | 43.94514 | -103.12952 | 38966 ft | 421 kts | 253° |
| 2026-04-25 03:29 | 43.93597 | -103.16813 | 39051 ft | 421 kts | 252° |
| 2026-04-25 03:29 | 43.92654 | -103.20661 | 39153 ft | 422 kts | 252° |
| 2026-04-25 03:29 | 43.91687 | -103.24506 | 39243 ft | 423 kts | 251° |
| 2026-04-25 03:30 | 43.89718 | -103.32204 | 39390 ft | 425 kts | 251° |
| 2026-04-25 03:30 | 43.87733 | -103.39928 | 39570 ft | 426 kts | 251° |
| 2026-04-25 03:31 | 43.85739 | -103.47670 | 39734 ft | 427 kts | 251° |
| 2026-04-25 03:31 | 43.83728 | -103.55430 | 39871 ft | 429 kts | 251° |
| 2026-04-25 03:32 | 43.81708 | -103.63226 | 39977 ft | 431 kts | 250° |
| 2026-04-25 03:32 | 43.79675 | -103.71025 | 39983 ft | 430 kts | 250° |
| 2026-04-25 03:33 | 43.77642 | -103.78810 | 39984 ft | 430 kts | 250° |
| 2026-04-25 03:33 | 43.75607 | -103.86593 | 39991 ft | 430 kts | 250° |
| 2026-04-25 03:34 | 43.73903 | -103.93063 | 39995 ft | 431 kts | 250° |
| 2026-04-25 03:34 | 43.71843 | -104.00862 | 40003 ft | 432 kts | 250° |
| 2026-04-25 03:35 | 43.69450 | -104.09931 | 40014 ft | 432 kts | 250° |
| 2026-04-25 03:35 | 43.67380 | -104.17732 | 40022 ft | 433 kts | 250° |
| 2026-04-25 03:36 | 43.65653 | -104.24217 | 40024 ft | 433 kts | 250° |
| 2026-04-25 03:36 | 43.63572 | -104.32011 | 40028 ft | 433 kts | 250° |
| 2026-04-25 03:37 | 43.61140 | -104.41087 | 40026 ft | 429 kts | 250° |
| 2026-04-25 03:37 | 43.59413 | -104.47511 | 40027 ft | 430 kts | 250° |
| 2026-04-25 03:38 | 43.57329 | -104.55241 | 40028 ft | 430 kts | 250° |
| 2026-04-25 03:38 | 43.55240 | -104.62964 | 40018 ft | 430 kts | 250° |
| 2026-04-25 03:39 | 43.53146 | -104.70682 | 40016 ft | 430 kts | 250° |
| 2026-04-25 03:39 | 43.51047 | -104.78394 | 40017 ft | 430 kts | 250° |
| 2026-04-25 03:40 | 43.48942 | -104.86103 | 40009 ft | 430 kts | 250° |
| 2026-04-25 03:40 | 43.46832 | -104.93806 | 40008 ft | 430 kts | 250° |
| 2026-04-25 03:41 | 43.44717 | -105.01504 | 40005 ft | 430 kts | 250° |
| 2026-04-25 03:41 | 43.42593 | -105.09206 | 40005 ft | 430 kts | 250° |
| 2026-04-25 03:42 | 43.40464 | -105.16906 | 39997 ft | 431 kts | 250° |
| 2026-04-25 03:42 | 43.38343 | -105.24552 | 40001 ft | 431 kts | 250° |
| 2026-04-25 03:43 | 43.36202 | -105.32245 | 40000 ft | 431 kts | 250° |
| 2026-04-25 03:43 | 43.34055 | -105.39939 | 39995 ft | 431 kts | 250° |
| 2026-04-25 03:44 | 43.31901 | -105.47630 | 39987 ft | 432 kts | 250° |
| 2026-04-25 03:44 | 43.29738 | -105.55327 | 39987 ft | 432 kts | 250° |
| 2026-04-25 03:45 | 43.27570 | -105.63025 | 39990 ft | 432 kts | 250° |
| 2026-04-25 03:45 | 43.25396 | -105.70720 | 39993 ft | 433 kts | 250° |
| 2026-04-25 03:46 | 43.23219 | -105.78411 | 39976 ft | 433 kts | 250° |
| 2026-04-25 03:46 | 43.21032 | -105.86099 | 39972 ft | 433 kts | 250° |
| 2026-04-25 03:47 | 43.18841 | -105.93769 | 39982 ft | 432 kts | 249° |
| 2026-04-25 03:47 | 43.16660 | -106.01378 | 39980 ft | 432 kts | 250° |
| 2026-04-25 03:48 | 43.14464 | -106.09046 | 39982 ft | 432 kts | 250° |
| 2026-04-25 03:48 | 43.12258 | -106.16718 | 39983 ft | 433 kts | 250° |
| 2026-04-25 03:49 | 43.10046 | -106.24392 | 39964 ft | 434 kts | 250° |
| 2026-04-25 03:49 | 43.07177 | -106.31634 | 39962 ft | 436 kts | 237° |
| 2026-04-25 03:50 | 43.03584 | -106.38324 | 39980 ft | 436 kts | 236° |
| 2026-04-25 03:50 | 43.00000 | -106.45012 | 39987 ft | 436 kts | 236° |
| 2026-04-25 03:51 | 42.96454 | -106.51722 | 39977 ft | 435 kts | 237° |
| 2026-04-25 03:51 | 42.92910 | -106.58430 | 39967 ft | 435 kts | 237° |
| 2026-04-25 03:52 | 42.89374 | -106.65124 | 39965 ft | 435 kts | 237° |
| 2026-04-25 03:52 | 42.85821 | -106.71807 | 39980 ft | 435 kts | 237° |
| 2026-04-25 03:53 | 42.82272 | -106.78486 | 39981 ft | 435 kts | 237° |
| 2026-04-25 03:53 | 42.78723 | -106.85149 | 39983 ft | 435 kts | 237° |
| 2026-04-25 03:54 | 42.75187 | -106.91763 | 39963 ft | 435 kts | 237° |
| 2026-04-25 03:54 | 42.71631 | -106.98408 | 39964 ft | 434 kts | 237° |
| 2026-04-25 03:55 | 42.68074 | -107.05045 | 39962 ft | 434 kts | 236° |
| 2026-04-25 03:55 | 42.64505 | -107.11671 | 39954 ft | 435 kts | 237° |
| 2026-04-25 03:56 | 42.60932 | -107.18298 | 39953 ft | 435 kts | 237° |
| 2026-04-25 03:56 | 42.57361 | -107.24918 | 39951 ft | 435 kts | 237° |
| 2026-04-25 03:57 | 42.53779 | -107.31524 | 39953 ft | 435 kts | 237° |
| 2026-04-25 03:57 | 42.50196 | -107.38139 | 39946 ft | 435 kts | 237° |
| 2026-04-25 03:58 | 42.46611 | -107.44739 | 39944 ft | 434 kts | 237° |
| 2026-04-25 03:58 | 42.43023 | -107.51325 | 39938 ft | 435 kts | 237° |
| 2026-04-25 03:59 | 42.39430 | -107.57913 | 39946 ft | 435 kts | 237° |
| 2026-04-25 03:59 | 42.35825 | -107.64500 | 39946 ft | 436 kts | 237° |
| 2026-04-25 04:00 | 42.32221 | -107.71076 | 39948 ft | 435 kts | 237° |
| 2026-04-25 04:00 | 42.28614 | -107.77637 | 39949 ft | 435 kts | 237° |
| 2026-04-25 04:01 | 42.25007 | -107.84185 | 39947 ft | 435 kts | 237° |
| 2026-04-25 04:01 | 42.21389 | -107.90737 | 39940 ft | 435 kts | 237° |
| 2026-04-25 04:02 | 42.17769 | -107.97276 | 39942 ft | 435 kts | 237° |
| 2026-04-25 04:02 | 42.14150 | -108.03799 | 39942 ft | 435 kts | 237° |
| 2026-04-25 04:03 | 42.10536 | -108.10321 | 39938 ft | 434 kts | 237° |
| 2026-04-25 04:03 | 42.06936 | -108.16788 | 39941 ft | 434 kts | 237° |
| 2026-04-25 04:04 | 42.03306 | -108.23295 | 39940 ft | 435 kts | 237° |
| 2026-04-25 04:04 | 41.99667 | -108.29792 | 39944 ft | 435 kts | 237° |
| 2026-04-25 04:05 | 41.96032 | -108.36281 | 39945 ft | 434 kts | 236° |
| 2026-04-25 04:05 | 41.92393 | -108.42754 | 39939 ft | 433 kts | 237° |
| 2026-04-25 04:06 | 41.88757 | -108.49202 | 39941 ft | 432 kts | 237° |
| 2026-04-25 04:06 | 41.85140 | -108.55632 | 39961 ft | 432 kts | 237° |
| 2026-04-25 04:07 | 41.81511 | -108.62051 | 39961 ft | 432 kts | 237° |
| 2026-04-25 04:07 | 41.77877 | -108.68460 | 39979 ft | 431 kts | 236° |
| 2026-04-25 04:08 | 41.74248 | -108.74852 | 39968 ft | 431 kts | 236° |
| 2026-04-25 04:08 | 41.70615 | -108.81222 | 39965 ft | 430 kts | 236° |
| 2026-04-25 04:09 | 41.66988 | -108.87586 | 39966 ft | 430 kts | 236° |
| 2026-04-25 04:09 | 41.63364 | -108.93937 | 39960 ft | 430 kts | 236° |
| 2026-04-25 04:10 | 41.59735 | -109.00272 | 39968 ft | 429 kts | 236° |
| 2026-04-25 04:10 | 41.55510 | -109.05955 | 39967 ft | 431 kts | 230° |
| 2026-04-25 04:11 | 41.49199 | -109.14491 | 39961 ft | 431 kts | 230° |
| 2026-04-25 04:12 | 41.44978 | -109.20092 | 39963 ft | 431 kts | 229° |
| 2026-04-25 04:12 | 41.40720 | -109.25707 | 39966 ft | 431 kts | 229° |
| 2026-04-25 04:13 | 41.36463 | -109.31306 | 39966 ft | 430 kts | 229° |
| 2026-04-25 04:13 | 41.32206 | -109.36890 | 39960 ft | 429 kts | 229° |
| 2026-04-25 04:14 | 41.27952 | -109.42459 | 39971 ft | 429 kts | 229° |
| 2026-04-25 04:14 | 41.23704 | -109.48017 | 39977 ft | 429 kts | 229° |
| 2026-04-25 04:15 | 41.19446 | -109.53572 | 39975 ft | 429 kts | 229° |
| 2026-04-25 04:15 | 41.15187 | -109.59118 | 39964 ft | 429 kts | 229° |
| 2026-04-25 04:16 | 41.10925 | -109.64656 | 39959 ft | 429 kts | 229° |
| 2026-04-25 04:16 | 41.06662 | -109.70183 | 39957 ft | 429 kts | 229° |
| 2026-04-25 04:17 | 41.02396 | -109.75707 | 39981 ft | 429 kts | 229° |
| 2026-04-25 04:17 | 40.98133 | -109.81220 | 39984 ft | 429 kts | 229° |
| 2026-04-25 04:18 | 40.93861 | -109.86731 | 39957 ft | 429 kts | 229° |
| 2026-04-25 04:18 | 40.89587 | -109.92231 | 39959 ft | 428 kts | 229° |
| 2026-04-25 04:19 | 40.85318 | -109.97716 | 39944 ft | 428 kts | 229° |
| 2026-04-25 04:19 | 40.81045 | -110.03195 | 39931 ft | 428 kts | 229° |
| 2026-04-25 04:20 | 40.76772 | -110.08668 | 39924 ft | 428 kts | 229° |
| 2026-04-25 04:20 | 40.72492 | -110.14126 | 39911 ft | 428 kts | 229° |
| 2026-04-25 04:21 | 40.68243 | -110.19554 | 39890 ft | 428 kts | 229° |
| 2026-04-25 04:21 | 40.63982 | -110.24978 | 39877 ft | 425 kts | 229° |
| 2026-04-25 04:22 | 40.59724 | -110.30395 | 39870 ft | 426 kts | 229° |
| 2026-04-25 04:22 | 40.55460 | -110.35801 | 39859 ft | 425 kts | 229° |
| 2026-04-25 04:23 | 40.51195 | -110.41197 | 39852 ft | 426 kts | 229° |
| 2026-04-25 04:23 | 40.46919 | -110.46598 | 39864 ft | 427 kts | 228° |
| 2026-04-25 04:24 | 40.42639 | -110.51988 | 39857 ft | 427 kts | 229° |
| 2026-04-25 04:24 | 40.38358 | -110.57382 | 39850 ft | 427 kts | 228° |
| 2026-04-25 04:25 | 40.34063 | -110.62780 | 39846 ft | 427 kts | 228° |
| 2026-04-25 04:25 | 40.29769 | -110.68166 | 39849 ft | 427 kts | 228° |
| 2026-04-25 04:26 | 40.25472 | -110.73546 | 39844 ft | 428 kts | 228° |
| 2026-04-25 04:26 | 40.21897 | -110.78012 | 39846 ft | 427 kts | 228° |
| 2026-04-25 04:27 | 40.17597 | -110.83375 | 39846 ft | 427 kts | 228° |
| 2026-04-25 04:27 | 40.13293 | -110.88736 | 39853 ft | 428 kts | 228° |
| 2026-04-25 04:28 | 40.08983 | -110.94089 | 39841 ft | 427 kts | 228° |
| 2026-04-25 04:28 | 40.04672 | -110.99426 | 39849 ft | 427 kts | 228° |
| 2026-04-25 04:29 | 40.00367 | -111.04772 | 39853 ft | 427 kts | 228° |
| 2026-04-25 04:29 | 39.96059 | -111.10096 | 39856 ft | 425 kts | 228° |
| 2026-04-25 04:30 | 39.91780 | -111.15377 | 39861 ft | 424 kts | 228° |
| 2026-04-25 04:30 | 39.87487 | -111.20665 | 39862 ft | 425 kts | 228° |
| 2026-04-25 04:31 | 39.83199 | -111.25934 | 39859 ft | 425 kts | 228° |
| 2026-04-25 04:31 | 39.78894 | -111.31220 | 39859 ft | 425 kts | 228° |
| 2026-04-25 04:32 | 39.74594 | -111.36488 | 39856 ft | 425 kts | 227° |
| 2026-04-25 04:32 | 39.70285 | -111.41754 | 39860 ft | 425 kts | 228° |
| 2026-04-25 04:33 | 39.65982 | -111.47013 | 39865 ft | 425 kts | 227° |
| 2026-04-25 04:33 | 39.61673 | -111.52255 | 39864 ft | 425 kts | 227° |
| 2026-04-25 04:34 | 39.57367 | -111.57496 | 39863 ft | 425 kts | 227° |
| 2026-04-25 04:34 | 39.53062 | -111.62720 | 39864 ft | 425 kts | 227° |
| 2026-04-25 04:35 | 39.48739 | -111.67959 | 39865 ft | 424 kts | 227° |
| 2026-04-25 04:35 | 39.44457 | -111.73136 | 39861 ft | 424 kts | 227° |
| 2026-04-25 04:36 | 39.40147 | -111.78334 | 39866 ft | 424 kts | 227° |
| 2026-04-25 04:36 | 39.35839 | -111.83529 | 39867 ft | 424 kts | 227° |
| 2026-04-25 04:37 | 39.31516 | -111.88735 | 39870 ft | 425 kts | 227° |
| 2026-04-25 04:37 | 39.27191 | -111.93926 | 39871 ft | 425 kts | 227° |
| 2026-04-25 04:38 | 39.22869 | -111.99112 | 39860 ft | 424 kts | 227° |
| 2026-04-25 04:38 | 39.18551 | -112.04290 | 39860 ft | 424 kts | 227° |
| 2026-04-25 04:39 | 39.14231 | -112.09452 | 39856 ft | 424 kts | 227° |
| 2026-04-25 04:39 | 39.09907 | -112.14603 | 39859 ft | 423 kts | 227° |
| 2026-04-25 04:40 | 39.05581 | -112.19749 | 39872 ft | 423 kts | 227° |
| 2026-04-25 04:40 | 39.01253 | -112.24892 | 39875 ft | 423 kts | 227° |
| 2026-04-25 04:41 | 38.96925 | -112.30021 | 39874 ft | 423 kts | 227° |
| 2026-04-25 04:41 | 38.92600 | -112.35142 | 39870 ft | 423 kts | 227° |
| 2026-04-25 04:42 | 38.88290 | -112.40241 | 39870 ft | 422 kts | 227° |
| 2026-04-25 04:42 | 38.83964 | -112.45338 | 39872 ft | 421 kts | 227° |
| 2026-04-25 04:43 | 38.79649 | -112.50420 | 39872 ft | 421 kts | 227° |
| 2026-04-25 04:43 | 38.75369 | -112.55455 | 39881 ft | 420 kts | 227° |
| 2026-04-25 04:44 | 38.71059 | -112.60518 | 39888 ft | 420 kts | 227° |
| 2026-04-25 04:44 | 38.66749 | -112.65570 | 39893 ft | 420 kts | 227° |
| 2026-04-25 04:45 | 38.62437 | -112.70617 | 39880 ft | 420 kts | 227° |
| 2026-04-25 04:45 | 38.58124 | -112.75658 | 39883 ft | 420 kts | 227° |
| 2026-04-25 04:46 | 38.53808 | -112.80688 | 39882 ft | 420 kts | 227° |
| 2026-04-25 04:46 | 38.49483 | -112.85715 | 39878 ft | 421 kts | 227° |
| 2026-04-25 04:47 | 38.45156 | -112.90749 | 39880 ft | 421 kts | 227° |
| 2026-04-25 04:47 | 38.40821 | -112.95777 | 39875 ft | 421 kts | 227° |
| 2026-04-25 04:48 | 38.36507 | -113.00743 | 39867 ft | 421 kts | 224° |
| 2026-04-25 04:48 | 38.31576 | -113.04896 | 39866 ft | 425 kts | 218° |
| 2026-04-25 04:49 | 38.26601 | -113.08974 | 39875 ft | 425 kts | 218° |
| 2026-04-25 04:49 | 38.21619 | -113.13032 | 39874 ft | 425 kts | 218° |
| 2026-04-25 04:50 | 38.16921 | -113.16847 | 39874 ft | 426 kts | 218° |
| 2026-04-25 04:50 | 38.11929 | -113.20894 | 39884 ft | 426 kts | 218° |
| 2026-04-25 04:51 | 38.06928 | -113.24937 | 39886 ft | 426 kts | 218° |
| 2026-04-25 04:51 | 38.01926 | -113.28979 | 39894 ft | 426 kts | 218° |
| 2026-04-25 04:52 | 37.96922 | -113.33010 | 39907 ft | 426 kts | 218° |
| 2026-04-25 04:52 | 37.91927 | -113.37015 | 39912 ft | 424 kts | 218° |
| 2026-04-25 04:53 | 37.86944 | -113.41008 | 39908 ft | 424 kts | 218° |
| 2026-04-25 04:53 | 37.81957 | -113.44987 | 39905 ft | 423 kts | 218° |
| 2026-04-25 04:54 | 37.76977 | -113.48954 | 39903 ft | 423 kts | 218° |
| 2026-04-25 04:54 | 37.71995 | -113.52912 | 39904 ft | 423 kts | 218° |
| 2026-04-25 04:55 | 37.67011 | -113.56870 | 39892 ft | 423 kts | 218° |
| 2026-04-25 04:55 | 37.62021 | -113.60823 | 39886 ft | 424 kts | 218° |
| 2026-04-25 04:56 | 37.57032 | -113.64778 | 39887 ft | 424 kts | 218° |
| 2026-04-25 04:56 | 37.52036 | -113.68727 | 39881 ft | 424 kts | 218° |
| 2026-04-25 04:57 | 37.47038 | -113.72670 | 39873 ft | 424 kts | 218° |
| 2026-04-25 04:57 | 37.42038 | -113.76611 | 39861 ft | 424 kts | 218° |
| 2026-04-25 04:58 | 37.37040 | -113.80540 | 39857 ft | 423 kts | 218° |
| 2026-04-25 04:58 | 37.32055 | -113.84455 | 39842 ft | 423 kts | 218° |
| 2026-04-25 04:59 | 37.27069 | -113.88363 | 39843 ft | 423 kts | 218° |
| 2026-04-25 04:59 | 37.22083 | -113.92266 | 39841 ft | 422 kts | 218° |
| 2026-04-25 05:00 | 37.17096 | -113.96160 | 39832 ft | 423 kts | 218° |
| 2026-04-25 05:00 | 37.12106 | -114.00053 | 39843 ft | 422 kts | 218° |
| 2026-04-25 05:01 | 37.07124 | -114.03936 | 39837 ft | 421 kts | 218° |
| 2026-04-25 05:01 | 37.02151 | -114.07806 | 39839 ft | 421 kts | 218° |
| 2026-04-25 05:02 | 36.97170 | -114.11653 | 39833 ft | 421 kts | 217° |
| 2026-04-25 05:02 | 36.92111 | -114.15364 | 39808 ft | 421 kts | 217° |
| 2026-04-25 05:03 | 36.87126 | -114.19198 | 39809 ft | 420 kts | 218° |
| 2026-04-25 05:03 | 36.82198 | -114.23108 | 39812 ft | 419 kts | 219° |
| 2026-04-25 05:04 | 36.77371 | -114.27147 | 39807 ft | 415 kts | 223° |
| 2026-04-25 05:04 | 36.73052 | -114.31850 | 39799 ft | 410 kts | 230° |
| 2026-04-25 05:05 | 36.69157 | -114.37011 | 39797 ft | 408 kts | 231° |
| 2026-04-25 05:05 | 36.65261 | -114.42161 | 39789 ft | 408 kts | 231° |
| 2026-04-25 05:06 | 36.61354 | -114.47283 | 39781 ft | 408 kts | 231° |
| 2026-04-25 05:06 | 36.57448 | -114.52404 | 39785 ft | 408 kts | 231° |
| 2026-04-25 05:07 | 36.53548 | -114.57516 | 39779 ft | 407 kts | 231° |
| 2026-04-25 05:07 | 36.49638 | -114.62624 | 39767 ft | 408 kts | 231° |
| 2026-04-25 05:08 | 36.45725 | -114.67737 | 39763 ft | 408 kts | 231° |
| 2026-04-25 05:08 | 36.41812 | -114.72833 | 39760 ft | 407 kts | 231° |
| 2026-04-25 05:09 | 36.37902 | -114.77919 | 39748 ft | 407 kts | 231° |
| 2026-04-25 05:09 | 36.33987 | -114.82987 | 39750 ft | 407 kts | 231° |
| 2026-04-25 05:10 | 36.30036 | -114.88010 | 39750 ft | 407 kts | 230° |
| 2026-04-25 05:10 | 36.26078 | -114.93028 | 39750 ft | 407 kts | 230° |
| 2026-04-25 05:11 | 36.22124 | -114.98050 | 39740 ft | 407 kts | 230° |
| 2026-04-25 05:11 | 36.18172 | -115.03065 | 39741 ft | 407 kts | 230° |
| 2026-04-25 05:12 | 36.12888 | -115.09759 | 39769 ft | 406 kts | 230° |
| 2026-04-25 05:12 | 36.08991 | -115.14785 | 39782 ft | 403 kts | 233° |
| 2026-04-25 05:13 | 36.05613 | -115.20263 | 39787 ft | 399 kts | 240° |
| 2026-04-25 05:13 | 36.02561 | -115.25984 | 39809 ft | 399 kts | 240° |
| 2026-04-25 05:14 | 35.99481 | -115.31691 | 39811 ft | 399 kts | 239° |
| 2026-04-25 05:15 | 35.94901 | -115.40136 | 39826 ft | 394 kts | 240° |
| 2026-04-25 05:15 | 35.91834 | -115.45778 | 39827 ft | 396 kts | 240° |
| 2026-04-25 05:16 | 35.88773 | -115.51412 | 39830 ft | 396 kts | 240° |
| 2026-04-25 05:16 | 35.85701 | -115.57045 | 39818 ft | 396 kts | 239° |
| 2026-04-25 05:17 | 35.82631 | -115.62672 | 39830 ft | 395 kts | 240° |
| 2026-04-25 05:17 | 35.79556 | -115.68291 | 39827 ft | 395 kts | 239° |
| 2026-04-25 05:18 | 35.76483 | -115.73903 | 39808 ft | 395 kts | 239° |
| 2026-04-25 05:18 | 35.73475 | -115.79387 | 39803 ft | 395 kts | 239° |
| 2026-04-25 05:19 | 35.70400 | -115.84986 | 39804 ft | 394 kts | 239° |
| 2026-04-25 05:19 | 35.67313 | -115.90560 | 39809 ft | 395 kts | 237° |
| 2026-04-25 05:20 | 35.63600 | -115.95616 | 39830 ft | 403 kts | 227° |
| 2026-04-25 05:20 | 35.59047 | -115.99739 | 39837 ft | 412 kts | 217° |
| 2026-04-25 05:21 | 35.53850 | -116.02887 | 39838 ft | 418 kts | 213° |
| 2026-04-25 05:21 | 35.48597 | -116.05944 | 39833 ft | 418 kts | 213° |
| 2026-04-25 05:22 | 35.43348 | -116.09002 | 39838 ft | 418 kts | 213° |
| 2026-04-25 05:22 | 35.38101 | -116.12060 | 39840 ft | 417 kts | 213° |
| 2026-04-25 05:23 | 35.32856 | -116.15105 | 39848 ft | 417 kts | 213° |
| 2026-04-25 05:23 | 35.27625 | -116.18135 | 39846 ft | 416 kts | 213° |
| 2026-04-25 05:24 | 35.22403 | -116.21165 | 39866 ft | 415 kts | 213° |
| 2026-04-25 05:24 | 35.17189 | -116.24180 | 39858 ft | 414 kts | 213° |
| 2026-04-25 05:25 | 35.11977 | -116.27186 | 39778 ft | 416 kts | 213° |
| 2026-04-25 05:25 | 35.09368 | -116.28694 | 39419 ft | 414 kts | 214° |
| 2026-04-25 05:25 | 35.06770 | -116.30195 | 38951 ft | 411 kts | 214° |
| 2026-04-25 05:25 | 35.04191 | -116.31677 | 38472 ft | 407 kts | 214° |
| 2026-04-25 05:26 | 35.01641 | -116.33143 | 38005 ft | 404 kts | 214° |
| 2026-04-25 05:26 | 34.99105 | -116.34605 | 37530 ft | 403 kts | 214° |
| 2026-04-25 05:26 | 34.96566 | -116.36064 | 37061 ft | 403 kts | 214° |
| 2026-04-25 05:26 | 34.94031 | -116.37522 | 36588 ft | 403 kts | 214° |
| 2026-04-25 05:27 | 34.91493 | -116.38979 | 36112 ft | 403 kts | 214° |
| 2026-04-25 05:27 | 34.88994 | -116.40523 | 35626 ft | 404 kts | 219° |
| 2026-04-25 05:27 | 34.86612 | -116.42364 | 35130 ft | 408 kts | 222° |
| 2026-04-25 05:27 | 34.84257 | -116.44295 | 34592 ft | 406 kts | 222° |
| 2026-04-25 05:28 | 34.81922 | -116.46187 | 33992 ft | 401 kts | 222° |
| 2026-04-25 05:28 | 34.79613 | -116.48048 | 33390 ft | 396 kts | 222° |
| 2026-04-25 05:28 | 34.77329 | -116.49888 | 32791 ft | 392 kts | 221° |
| 2026-04-25 05:28 | 34.75064 | -116.51713 | 32189 ft | 391 kts | 221° |
| 2026-04-25 05:29 | 34.72793 | -116.53547 | 31596 ft | 392 kts | 221° |
| 2026-04-25 05:29 | 34.70523 | -116.55376 | 30996 ft | 390 kts | 221° |
| 2026-04-25 05:29 | 34.68271 | -116.57187 | 30396 ft | 387 kts | 221° |
| 2026-04-25 05:29 | 34.66031 | -116.58986 | 29797 ft | 386 kts | 220° |
| 2026-04-25 05:30 | 34.63796 | -116.60785 | 29192 ft | 386 kts | 220° |
| 2026-04-25 05:30 | 34.61572 | -116.62569 | 28604 ft | 384 kts | 220° |
| 2026-04-25 05:30 | 34.59339 | -116.64360 | 27994 ft | 382 kts | 220° |
| 2026-04-25 05:30 | 34.57152 | -116.66149 | 27407 ft | 375 kts | 222° |
| 2026-04-25 05:31 | 34.55064 | -116.68016 | 26939 ft | 371 kts | 223° |
| 2026-04-25 05:31 | 34.53008 | -116.69913 | 26518 ft | 372 kts | 223° |
| 2026-04-25 05:31 | 34.50947 | -116.71810 | 26127 ft | 372 kts | 223° |
| 2026-04-25 05:31 | 34.48874 | -116.73688 | 25752 ft | 372 kts | 223° |
| 2026-04-25 05:32 | 34.46818 | -116.75540 | 25392 ft | 370 kts | 223° |
| 2026-04-25 05:32 | 34.44787 | -116.77361 | 25065 ft | 360 kts | 222° |
| 2026-04-25 05:32 | 34.42780 | -116.79149 | 24773 ft | 346 kts | 223° |
| 2026-04-25 05:32 | 34.40882 | -116.80838 | 24512 ft | 331 kts | 223° |
| 2026-04-25 05:33 | 34.39085 | -116.82430 | 24253 ft | 320 kts | 223° |
| 2026-04-25 05:33 | 34.37310 | -116.83999 | 24001 ft | 312 kts | 223° |
| 2026-04-25 05:33 | 34.35576 | -116.85535 | 23755 ft | 308 kts | 223° |
| 2026-04-25 05:33 | 34.33845 | -116.87064 | 23504 ft | 308 kts | 223° |
| 2026-04-25 05:34 | 34.32117 | -116.88592 | 23246 ft | 308 kts | 223° |
| 2026-04-25 05:34 | 34.30392 | -116.90115 | 23119 ft | 306 kts | 223° |
| 2026-04-25 05:34 | 34.28675 | -116.91630 | 23058 ft | 306 kts | 223° |
| 2026-04-25 05:34 | 34.26954 | -116.93148 | 23051 ft | 307 kts | 223° |
| 2026-04-25 05:35 | 34.25220 | -116.94673 | 23043 ft | 307 kts | 223° |
| 2026-04-25 05:35 | 34.23497 | -116.96188 | 23048 ft | 306 kts | 223° |
| 2026-04-25 05:35 | 34.21920 | -116.97872 | 23035 ft | 300 kts | 234° |
| 2026-04-25 05:35 | 34.20752 | -116.99932 | 23031 ft | 296 kts | 246° |
| 2026-04-25 05:36 | 34.20020 | -117.02226 | 23014 ft | 293 kts | 255° |
| 2026-04-25 05:36 | 34.19418 | -117.04595 | 23018 ft | 295 kts | 254° |
| 2026-04-25 05:36 | 34.18792 | -117.06943 | 23012 ft | 293 kts | 254° |
| 2026-04-25 05:36 | 34.18161 | -117.09280 | 23013 ft | 293 kts | 254° |
| 2026-04-25 05:37 | 34.17527 | -117.11607 | 23010 ft | 291 kts | 254° |
| 2026-04-25 05:37 | 34.16902 | -117.13936 | 22899 ft | 291 kts | 254° |
| 2026-04-25 05:37 | 34.16311 | -117.16276 | 22690 ft | 293 kts | 254° |
| 2026-04-25 05:37 | 34.15632 | -117.18611 | 22281 ft | 296 kts | 252° |
| 2026-04-25 05:38 | 34.14931 | -117.20930 | 21658 ft | 293 kts | 252° |
| 2026-04-25 05:38 | 34.14258 | -117.23243 | 21031 ft | 290 kts | 253° |
| 2026-04-25 05:38 | 34.13619 | -117.25540 | 20407 ft | 287 kts | 253° |
| 2026-04-25 05:38 | 34.13000 | -117.27819 | 19781 ft | 284 kts | 254° |
| 2026-04-25 05:39 | 34.12394 | -117.30077 | 19155 ft | 282 kts | 254° |
| 2026-04-25 05:39 | 34.11795 | -117.32320 | 18531 ft | 281 kts | 254° |
| 2026-04-25 05:39 | 34.11196 | -117.34561 | 17906 ft | 280 kts | 253° |
| 2026-04-25 05:39 | 34.10593 | -117.36803 | 17281 ft | 281 kts | 254° |
| 2026-04-25 05:40 | 34.10005 | -117.39045 | 16660 ft | 281 kts | 255° |
| 2026-04-25 05:40 | 34.09445 | -117.41297 | 16035 ft | 280 kts | 255° |
| 2026-04-25 05:40 | 34.08889 | -117.43551 | 15413 ft | 280 kts | 255° |
| 2026-04-25 05:40 | 34.08333 | -117.45798 | 14786 ft | 279 kts | 255° |
| 2026-04-25 05:41 | 34.07781 | -117.48020 | 14423 ft | 270 kts | 254° |
| 2026-04-25 05:41 | 34.07242 | -117.50170 | 14161 ft | 268 kts | 254° |
| 2026-04-25 05:41 | 34.06700 | -117.52319 | 13836 ft | 268 kts | 254° |
| 2026-04-25 05:41 | 34.06150 | -117.54466 | 13511 ft | 267 kts | 254° |
| 2026-04-25 05:42 | 34.05604 | -117.56597 | 13193 ft | 266 kts | 254° |
| 2026-04-25 05:42 | 34.05057 | -117.58725 | 12875 ft | 265 kts | 253° |
| 2026-04-25 05:42 | 34.04505 | -117.60874 | 12554 ft | 274 kts | 254° |
| 2026-04-25 05:42 | 34.03942 | -117.63090 | 12226 ft | 277 kts | 253° |
| 2026-04-25 05:43 | 34.03375 | -117.65299 | 11915 ft | 274 kts | 253° |
| 2026-04-25 05:43 | 34.02814 | -117.67486 | 11598 ft | 273 kts | 253° |
| 2026-04-25 05:43 | 34.02273 | -117.69688 | 11276 ft | 275 kts | 257° |
| 2026-04-25 05:43 | 34.01968 | -117.71967 | 10954 ft | 276 kts | 264° |
| 2026-04-25 05:44 | 34.01766 | -117.74274 | 10627 ft | 277 kts | 264° |
| 2026-04-25 05:44 | 34.01552 | -117.76586 | 10295 ft | 277 kts | 263° |
| 2026-04-25 05:44 | 34.01334 | -117.78874 | 9975 ft | 270 kts | 263° |
| 2026-04-25 05:44 | 34.01122 | -117.81070 | 9642 ft | 257 kts | 263° |
| 2026-04-25 05:45 | 34.00920 | -117.83155 | 9298 ft | 245 kts | 263° |
| 2026-04-25 05:45 | 34.00720 | -117.85167 | 8918 ft | 238 kts | 263° |
| 2026-04-25 05:45 | 34.00448 | -117.87114 | 8532 ft | 235 kts | 259° |
| 2026-04-25 05:45 | 34.00079 | -117.89034 | 8168 ft | 235 kts | 255° |
| 2026-04-25 05:46 | 33.99918 | -117.90962 | 7799 ft | 231 kts | 273° |
| 2026-04-25 05:46 | 33.99978 | -117.92911 | 7420 ft | 234 kts | 269° |
| 2026-04-25 05:46 | 33.99875 | -117.94829 | 7048 ft | 232 kts | 264° |
| 2026-04-25 05:46 | 33.99675 | -117.96726 | 6842 ft | 226 kts | 262° |
| 2026-04-25 05:47 | 33.99472 | -117.98672 | 6621 ft | 232 kts | 263° |
| 2026-04-25 05:47 | 33.99283 | -118.00571 | 6358 ft | 226 kts | 263° |
| 2026-04-25 05:47 | 33.99088 | -118.02469 | 6098 ft | 230 kts | 263° |
| 2026-04-25 05:47 | 33.98890 | -118.04362 | 5820 ft | 225 kts | 262° |
| 2026-04-25 05:48 | 33.98697 | -118.06242 | 5542 ft | 227 kts | 262° |
| 2026-04-25 05:48 | 33.98505 | -118.08118 | 5248 ft | 224 kts | 263° |
| 2026-04-25 05:48 | 33.98313 | -118.09994 | 4959 ft | 226 kts | 263° |
| 2026-04-25 05:48 | 33.98116 | -118.11856 | 4664 ft | 221 kts | 263° |
| 2026-04-25 05:49 | 33.97928 | -118.13703 | 4380 ft | 224 kts | 262° |
| 2026-04-25 05:49 | 33.97737 | -118.15574 | 4079 ft | 225 kts | 263° |
| 2026-04-25 05:49 | 33.97547 | -118.17417 | 3785 ft | 218 kts | 263° |
| 2026-04-25 05:49 | 33.97362 | -118.19211 | 3492 ft | 214 kts | 263° |
| 2026-04-25 05:50 | 33.97185 | -118.20966 | 3207 ft | 209 kts | 263° |
| 2026-04-25 05:50 | 33.97010 | -118.22684 | 2932 ft | 204 kts | 263° |
| 2026-04-25 05:50 | 33.96839 | -118.24350 | 2695 ft | 197 kts | 262° |
| 2026-04-25 05:50 | 33.96675 | -118.25982 | 2419 ft | 195 kts | 263° |
| 2026-04-25 05:51 | 33.96505 | -118.27587 | 2155 ft | 190 kts | 262° |
| 2026-04-25 05:51 | 33.96351 | -118.29115 | 1905 ft | 177 kts | 263° |
| 2026-04-25 05:51 | 33.96201 | -118.30539 | 1692 ft | 171 kts | 262° |
| 2026-04-25 05:51 | 33.96062 | -118.31907 | 1458 ft | 158 kts | 262° |
| 2026-04-25 05:52 | 33.95929 | -118.33227 | 1266 ft | 160 kts | 262° |
| 2026-04-25 05:52 | 33.95797 | -118.34507 | 1042 ft | 146 kts | 262° |
| 2026-04-25 05:52 | 33.95678 | -118.35667 | 846 ft | 138 kts | 261° |
| 2026-04-25 05:52 | 33.95559 | -118.36828 | 666 ft | 136 kts | 262° |
| 2026-04-25 05:53 | 33.95446 | -118.37967 | 490 ft | 139 kts | 262° |
| 2026-04-25 05:53 | 33.95331 | -118.39093 | 307 ft | 137 kts | 262° |
| 2026-04-25 05:53 | 33.95211 | -118.40210 | 141 ft | 138 kts | 262° |
| 2026-04-25 05:53 | 33.95099 | -118.41263 | 99 ft | 104 kts | 264° |
| 2026-04-25 05:54 | 33.95053 | -118.41728 | 100 ft | 65 kts | 263° |
| 2026-04-25 05:54 | 33.94992 | -118.42104 | 99 ft | 35 kts | 244° |
| 2026-04-25 05:54 | 33.94884 | -118.42255 | 102 ft | 0 kts | 214° |
| 2026-04-25 05:55 | 33.94877 | -118.42260 | 103 ft | 4 kts | 213° |
| 2026-04-25 05:55 | 33.94823 | -118.42280 | 101 ft | 12 kts | 190° |
| 2026-04-25 05:55 | 33.94718 | -118.42273 | 100 ft | 17 kts | 170° |
| 2026-04-25 05:55 | 33.94689 | -118.42182 | 99 ft | 13 kts | 83° |
| 2026-04-25 05:56 | 33.94701 | -118.42064 | 101 ft | 15 kts | 82° |
| 2026-04-25 05:56 | 33.94714 | -118.41929 | 99 ft | 17 kts | 83° |
| 2026-04-25 05:56 | 33.94728 | -118.41779 | 102 ft | 19 kts | 83° |
| 2026-04-25 05:56 | 33.94743 | -118.41631 | 99 ft | 12 kts | 83° |
| 2026-04-25 05:57 | 33.94755 | -118.41525 | 100 ft | 14 kts | 83° |
| 2026-04-25 05:57 | 33.94772 | -118.41406 | 100 ft | 15 kts | 70° |
| 2026-04-25 05:57 | 33.94772 | -118.41306 | 102 ft | 8 kts | 138° |
| 2026-04-25 05:57 | 33.94706 | -118.41286 | 99 ft | 11 kts | 172° |
| 2026-04-25 05:58 | 33.94636 | -118.41275 | 100 ft | 11 kts | 173° |
| 2026-04-25 05:58 | 33.94575 | -118.41266 | 99 ft | 7 kts | 172° |
| 2026-04-25 05:58 | 33.94530 | -118.41239 | 98 ft | 7 kts | 127° |
| 2026-04-25 05:58 | 33.94525 | -118.41181 | 99 ft | 7 kts | 97° |
| 2026-04-25 05:59 | 33.94521 | -118.41145 | 99 ft | 2 kts | 97° |
| 2026-04-25 05:59 | 33.94520 | -118.41138 | 99 ft | 0 kts | 97° |